Time;durP1;ratioP1;P1;durP2;ratioP2;P2;SDS_P1;SDS_P2;PMS_P1;PMS_P2;Temp;Humidity;BMP_temperature;BMP_pressure;BME280_temperature;BME280_humidity;BME280_pressure;Samples;Min_cycle;Max_cycle;Signal;HPM_P1;HPM_P2
2022/07/16 00:03:26;;;;;;;1.17;0.65;;;;;;;;;;4946545;28;20294;-53
2022/07/16 00:05:54;;;;;;;1.70;0.70;;;;;;;;;;4960441;28;20239;-54
2022/07/16 00:08:21;;;;;;;0.68;0.50;;;;;;;;;;4950256;28;20259;-54
2022/07/16 00:10:47;;;;;;;0.75;0.57;;;;;;;;;;4951780;28;20710;-54
2022/07/16 00:13:15;;;;;;;3.90;1.02;;;;;;;;;;4947810;28;20226;-54
2022/07/16 00:15:41;;;;;;;2.38;0.80;;;;;;;;;;4953837;28;20236;-53
2022/07/16 00:20:52;;;;;;;0.98;0.73;;;;;;;;;;4950505;28;20253;-53
2022/07/16 00:23:18;;;;;;;1.02;0.70;;;;;;;;;;4947284;28;20286;-53
2022/07/16 00:25:44;;;;;;;0.73;0.70;;;;;;;;;;4944060;28;20305;-53
2022/07/16 00:28:11;;;;;;;4.60;0.80;;;;;;;;;;4952498;28;20232;-54
2022/07/16 00:30:38;;;;;;;0.75;0.75;;;;;;;;;;4945962;28;20232;-53
2022/07/16 00:33:05;;;;;;;0.73;0.65;;;;;;;;;;4947064;28;20235;-53
2022/07/16 00:35:31;;;;;;;0.63;0.55;;;;;;;;;;4948849;28;20242;-53
2022/07/16 00:38:00;;;;;;;0.90;0.70;;;;;;;;;;4949443;28;20241;-53
2022/07/16 00:40:26;;;;;;;1.15;0.73;;;;;;;;;;4953485;28;21852;-53
2022/07/16 00:42:53;;;;;;;2.00;0.95;;;;;;;;;;4950608;28;20725;-53
2022/07/16 00:45:19;;;;;;;1.05;0.65;;;;;;;;;;4952652;28;20234;-53
2022/07/16 00:47:47;;;;;;;2.65;0.70;;;;;;;;;;4944859;28;20239;-53
2022/07/16 00:50:14;;;;;;;1.10;0.88;;;;;;;;;;4956303;28;20241;-54
2022/07/16 00:52:40;;;;;;;0.52;0.52;;;;;;;;;;4940008;28;20245;-53
2022/07/16 00:55:07;;;;;;;0.70;0.70;;;;;;;;;;4932971;28;20243;-53
2022/07/16 00:57:33;;;;;;;0.40;0.40;;;;;;;;;;4950384;28;20242;-53
2022/07/16 00:59:59;;;;;;;0.45;0.43;;;;;;;;;;4951438;28;20247;-53
2022/07/16 01:02:26;;;;;;;2.17;0.52;;;;;;;;;;4953006;28;20241;-53
2022/07/16 01:04:54;;;;;;;0.60;0.60;;;;;;;;;;4943557;28;20235;-53
2022/07/16 01:07:22;;;;;;;0.70;0.70;;;;;;;;;;4943688;28;20227;-53
2022/07/16 01:09:48;;;;;;;0.80;0.80;;;;;;;;;;4945555;28;20330;-53
2022/07/16 01:12:15;;;;;;;3.17;0.90;;;;;;;;;;4946090;28;20246;-53
2022/07/16 01:14:42;;;;;;;1.48;0.80;;;;;;;;;;4948409;28;20731;-53
2022/07/16 01:17:09;;;;;;;0.70;0.70;;;;;;;;;;4945859;28;20239;-53
2022/07/16 01:19:36;;;;;;;0.60;0.60;;;;;;;;;;4944068;28;20239;-53
2022/07/16 01:22:03;;;;;;;1.48;0.73;;;;;;;;;;4944560;28;20242;-53
2022/07/16 01:24:31;;;;;;;0.77;0.50;;;;;;;;;;4944536;28;20239;-54
2022/07/16 01:26:57;;;;;;;1.48;0.75;;;;;;;;;;4950271;28;20230;-53
2022/07/16 01:29:24;;;;;;;0.68;0.65;;;;;;;;;;4944147;28;20613;-53
2022/07/16 01:31:50;;;;;;;0.60;0.55;;;;;;;;;;4946975;28;20233;-53
2022/07/16 01:34:26;;;;;;;0.65;0.65;;;;;;;;;;4945240;28;20255;-53
2022/07/16 01:36:53;;;;;;;2.08;0.75;;;;;;;;;;4946300;28;20330;-54
2022/07/16 01:39:19;;;;;;;0.88;0.80;;;;;;;;;;4942271;28;20243;-55
2022/07/16 01:41:51;;;;;;;0.52;0.43;;;;;;;;;;4944231;28;20242;-53
2022/07/16 01:44:17;;;;;;;2.70;0.90;;;;;;;;;;4953288;28;20241;-53
2022/07/16 01:46:43;;;;;;;0.80;0.75;;;;;;;;;;4943953;28;20725;-53
2022/07/16 01:49:10;;;;;;;3.75;0.82;;;;;;;;;;4948617;28;20239;-54
2022/07/16 01:51:37;;;;;;;0.60;0.60;;;;;;;;;;4940726;28;20710;-53
2022/07/16 01:54:04;;;;;;;0.68;0.60;;;;;;;;;;4941343;28;20788;-54
2022/07/16 01:56:30;;;;;;;0.70;0.70;;;;;;;;;;4947093;28;20266;-53
2022/07/16 01:58:58;;;;;;;1.48;0.90;;;;;;;;;;4948427;28;20327;-53
2022/07/16 02:01:24;;;;;;;1.20;0.70;;;;;;;;;;4947273;28;20239;-53
2022/07/16 02:03:51;;;;;;;0.55;0.40;;;;;;;;;;4943000;28;20237;-53
2022/07/16 02:06:17;;;;;;;1.13;0.50;;;;;;;;;;4948344;28;20242;-53
2022/07/16 02:08:43;;;;;;;0.77;0.55;;;;;;;;;;4945122;28;20246;-53
2022/07/16 02:11:10;;;;;;;1.60;0.98;;;;;;;;;;4946468;28;20231;-53
2022/07/16 02:13:36;;;;;;;0.85;0.60;;;;;;;;;;4949759;28;20231;-58
2022/07/16 02:16:04;;;;;;;1.20;0.60;;;;;;;;;;4962140;28;22427;-53
2022/07/16 02:18:31;;;;;;;0.82;0.60;;;;;;;;;;4942596;28;20239;-53
2022/07/16 02:20:57;;;;;;;0.82;0.70;;;;;;;;;;4945933;28;20235;-53
2022/07/16 02:23:24;;;;;;;0.70;0.70;;;;;;;;;;4949913;28;20784;-53
2022/07/16 02:25:50;;;;;;;2.67;1.13;;;;;;;;;;4943697;28;20322;-53
2022/07/16 02:28:16;;;;;;;0.88;0.52;;;;;;;;;;4949259;28;20239;-53
2022/07/16 02:30:44;;;;;;;1.40;0.77;;;;;;;;;;4959251;28;20329;-53
2022/07/16 02:33:13;;;;;;;3.03;0.82;;;;;;;;;;4963817;28;20234;-53
2022/07/16 02:35:40;;;;;;;0.93;0.75;;;;;;;;;;4968149;28;20807;-53
2022/07/16 02:38:08;;;;;;;1.48;1.00;;;;;;;;;;4973369;28;20236;-53
2022/07/16 02:40:34;;;;;;;1.05;0.70;;;;;;;;;;4963083;28;20242;-53
2022/07/16 02:43:01;;;;;;;2.05;0.60;;;;;;;;;;4962542;28;20826;-53
2022/07/16 02:45:27;;;;;;;1.25;0.95;;;;;;;;;;4964600;28;20242;-53
2022/07/16 02:47:54;;;;;;;2.70;0.88;;;;;;;;;;4960573;28;20264;-53
2022/07/16 02:50:22;;;;;;;0.70;0.70;;;;;;;;;;4936419;28;20699;-53
2022/07/16 02:52:48;;;;;;;1.67;0.80;;;;;;;;;;4944949;28;20285;-53
2022/07/16 02:55:15;;;;;;;0.75;0.70;;;;;;;;;;4944390;28;20227;-53
2022/07/16 02:57:41;;;;;;;1.65;0.65;;;;;;;;;;4946544;28;20239;-53
2022/07/16 03:00:09;;;;;;;1.13;0.85;;;;;;;;;;4944725;28;20242;-53
2022/07/16 03:02:35;;;;;;;2.75;0.60;;;;;;;;;;4958388;28;20232;-53
2022/07/16 03:05:03;;;;;;;0.68;0.68;;;;;;;;;;4951134;28;20230;-54
2022/07/16 03:07:31;;;;;;;2.47;1.10;;;;;;;;;;4959152;28;20281;-54
2022/07/16 03:09:58;;;;;;;0.98;0.80;;;;;;;;;;4942534;28;20610;-53
2022/07/16 03:12:24;;;;;;;0.85;0.60;;;;;;;;;;4947303;28;20231;-52
2022/07/16 03:14:51;;;;;;;1.58;1.08;;;;;;;;;;4942746;28;20319;-54
2022/07/16 03:17:17;;;;;;;2.45;0.73;;;;;;;;;;4955340;28;20244;-53
2022/07/16 03:19:43;;;;;;;0.85;0.80;;;;;;;;;;4953162;28;20741;-54
2022/07/16 03:22:10;;;;;;;1.85;1.15;;;;;;;;;;4956967;28;20283;-54
2022/07/16 03:24:37;;;;;;;1.63;1.45;;;;;;;;;;4941942;28;20227;-53
2022/07/16 03:27:04;;;;;;;1.23;0.90;;;;;;;;;;4965801;28;20350;-53
2022/07/16 03:29:30;;;;;;;4.28;1.08;;;;;;;;;;4949331;28;20243;-53
2022/07/16 03:31:57;;;;;;;0.85;0.70;;;;;;;;;;4950392;28;20234;-53
2022/07/16 03:34:23;;;;;;;2.15;0.65;;;;;;;;;;4954542;28;20310;-53
2022/07/16 03:36:50;;;;;;;1.27;1.00;;;;;;;;;;4954106;28;20231;-53
2022/07/16 03:39:16;;;;;;;0.90;0.70;;;;;;;;;;4947820;28;20266;-53
2022/07/16 03:41:44;;;;;;;1.30;0.98;;;;;;;;;;4948677;28;20242;-53
2022/07/16 03:44:12;;;;;;;0.75;0.75;;;;;;;;;;4951003;28;20227;-54
2022/07/16 03:46:38;;;;;;;3.15;0.93;;;;;;;;;;4952698;28;20267;-54
2022/07/16 03:49:05;;;;;;;0.70;0.60;;;;;;;;;;4953995;28;20253;-53
2022/07/16 03:51:31;;;;;;;1.83;0.50;;;;;;;;;;4950713;28;20242;-54
2022/07/16 03:53:57;;;;;;;0.68;0.60;;;;;;;;;;4950621;28;20231;-53
2022/07/16 03:56:24;;;;;;;0.77;0.70;;;;;;;;;;4952900;28;20231;-53
2022/07/16 03:58:52;;;;;;;1.20;0.75;;;;;;;;;;4952028;28;20240;-53
2022/07/16 04:01:18;;;;;;;0.60;0.60;;;;;;;;;;4955062;28;20239;-54
2022/07/16 04:03:45;;;;;;;1.75;0.80;;;;;;;;;;4956041;28;20227;-54
2022/07/16 04:06:11;;;;;;;1.52;0.85;;;;;;;;;;4946591;28;20721;-54
2022/07/16 04:08:38;;;;;;;2.50;0.90;;;;;;;;;;4944936;28;20243;-51
2022/07/16 04:11:04;;;;;;;0.85;0.82;;;;;;;;;;4949693;28;20234;-53
2022/07/16 04:13:31;;;;;;;1.27;1.02;;;;;;;;;;4945406;28;20239;-53
2022/07/16 04:15:58;;;;;;;2.33;0.80;;;;;;;;;;4955695;28;20238;-54
2022/07/16 04:18:25;;;;;;;1.35;0.80;;;;;;;;;;4946906;28;20243;-53
2022/07/16 04:20:51;;;;;;;1.05;0.80;;;;;;;;;;4961486;28;20694;-54
2022/07/16 04:23:19;;;;;;;1.23;0.80;;;;;;;;;;4960230;28;20234;-53
2022/07/16 04:25:45;;;;;;;1.02;0.82;;;;;;;;;;4962141;28;20231;-53
2022/07/16 04:28:12;;;;;;;1.63;0.95;;;;;;;;;;4956898;28;20353;-53
2022/07/16 04:30:38;;;;;;;1.30;0.65;;;;;;;;;;4964937;28;20245;-54
2022/07/16 04:33:06;;;;;;;0.55;0.55;;;;;;;;;;4966293;28;20238;-53
2022/07/16 04:35:32;;;;;;;0.50;0.50;;;;;;;;;;4960447;28;20618;-54
2022/07/16 04:37:59;;;;;;;1.48;0.85;;;;;;;;;;4965626;28;20620;-51
2022/07/16 04:40:25;;;;;;;0.75;0.60;;;;;;;;;;4963529;28;22324;-52
2022/07/16 04:42:52;;;;;;;1.50;0.88;;;;;;;;;;4954574;28;20683;-52
2022/07/16 04:45:18;;;;;;;1.08;0.82;;;;;;;;;;4945160;28;20336;-51
2022/07/16 04:47:44;;;;;;;0.70;0.70;;;;;;;;;;4947572;28;20235;-53
2022/07/16 04:50:12;;;;;;;1.35;0.90;;;;;;;;;;4945326;28;20239;-54
2022/07/16 04:52:39;;;;;;;2.25;0.85;;;;;;;;;;4949805;28;20246;-53
2022/07/16 04:55:06;;;;;;;2.38;0.90;;;;;;;;;;4954612;28;20235;-53
2022/07/16 04:57:32;;;;;;;0.60;0.60;;;;;;;;;;4945710;28;20239;-54
2022/07/16 04:59:59;;;;;;;0.82;0.75;;;;;;;;;;4951672;28;20240;-54
2022/07/16 05:05:09;;;;;;;2.03;0.98;;;;;;;;;;4939737;28;20362;-53
2022/07/16 05:07:37;;;;;;;0.68;0.52;;;;;;;;;;4944072;28;20227;-53
2022/07/16 05:10:04;;;;;;;0.77;0.60;;;;;;;;;;4943613;28;20739;-52
2022/07/16 05:12:30;;;;;;;0.60;0.60;;;;;;;;;;4947358;28;20606;-53
2022/07/16 05:14:56;;;;;;;1.00;0.73;;;;;;;;;;4946371;28;20235;-56
2022/07/16 05:17:23;;;;;;;1.88;0.88;;;;;;;;;;4948119;28;20581;-53
2022/07/16 05:19:49;;;;;;;0.63;0.63;;;;;;;;;;4951978;28;20249;-53
2022/07/16 05:22:15;;;;;;;1.63;0.90;;;;;;;;;;4950792;28;20231;-53
2022/07/16 05:24:43;;;;;;;1.67;0.82;;;;;;;;;;4943356;28;20266;-53
2022/07/16 05:27:09;;;;;;;2.10;1.00;;;;;;;;;;4952285;28;20257;-53
2022/07/16 05:29:36;;;;;;;1.13;0.60;;;;;;;;;;4944923;28;20748;-53
2022/07/16 05:32:02;;;;;;;1.00;0.90;;;;;;;;;;4947625;28;20230;-53
2022/07/16 05:34:29;;;;;;;0.95;0.95;;;;;;;;;;4951796;28;20724;-54
2022/07/16 05:36:55;;;;;;;1.10;1.00;;;;;;;;;;4946752;28;20247;-53
2022/07/16 05:39:21;;;;;;;2.83;1.60;;;;;;;;;;4957290;28;20604;-53
2022/07/16 05:41:49;;;;;;;3.17;1.00;;;;;;;;;;4952977;28;20364;-53
2022/07/16 05:44:15;;;;;;;1.63;0.90;;;;;;;;;;4947448;28;20231;-53
2022/07/16 05:46:42;;;;;;;1.83;1.10;;;;;;;;;;4947368;28;20239;-53
2022/07/16 05:49:08;;;;;;;4.13;1.10;;;;;;;;;;4961105;28;20242;-53
2022/07/16 05:51:34;;;;;;;2.35;1.08;;;;;;;;;;4966321;28;20240;-54
2022/07/16 05:54:01;;;;;;;7.88;1.20;;;;;;;;;;4964113;28;20240;-53
2022/07/16 05:56:27;;;;;;;1.65;0.80;;;;;;;;;;4971530;28;20269;-54
2022/07/16 05:58:56;;;;;;;1.88;1.23;;;;;;;;;;4960624;28;20242;-53
2022/07/16 06:01:22;;;;;;;2.53;1.30;;;;;;;;;;4961077;28;20243;-53
2022/07/16 06:03:48;;;;;;;1.13;1.10;;;;;;;;;;4971480;28;20234;-53
2022/07/16 06:06:15;;;;;;;1.45;1.25;;;;;;;;;;4959587;28;20238;-53
2022/07/16 06:08:41;;;;;;;4.10;1.75;;;;;;;;;;4959268;28;20253;-54
2022/07/16 06:11:08;;;;;;;2.47;1.50;;;;;;;;;;4959805;28;20245;-54
2022/07/16 06:13:36;;;;;;;1.95;1.40;;;;;;;;;;4962884;28;20302;-55
2022/07/16 06:16:06;;;;;;;3.35;1.63;;;;;;;;;;4967985;28;20294;-58
2022/07/16 06:18:33;;;;;;;4.63;2.00;;;;;;;;;;4961615;28;20230;-61
2022/07/16 06:20:59;;;;;;;4.82;1.52;;;;;;;;;;4957881;28;20231;-61
2022/07/16 06:23:26;;;;;;;3.78;1.88;;;;;;;;;;4955773;28;20310;-62
2022/07/16 06:25:52;;;;;;;1.73;1.58;;;;;;;;;;4973172;28;20261;-61
2022/07/16 06:28:19;;;;;;;3.42;2.22;;;;;;;;;;4965255;28;20318;-61
2022/07/16 06:30:45;;;;;;;3.15;2.83;;;;;;;;;;4965716;28;20245;-61
2022/07/16 06:33:13;;;;;;;4.95;2.83;;;;;;;;;;4963815;28;20305;-61
2022/07/16 06:35:39;;;;;;;4.25;2.53;;;;;;;;;;4962589;28;20321;-61
2022/07/16 06:38:05;;;;;;;3.42;2.72;;;;;;;;;;4960380;28;20235;-62
2022/07/16 06:40:32;;;;;;;3.70;2.45;;;;;;;;;;4971700;28;20242;-62
2022/07/16 06:42:58;;;;;;;2.50;2.30;;;;;;;;;;4970319;28;20235;-62
2022/07/16 06:45:27;;;;;;;2.20;2.00;;;;;;;;;;4960052;28;20241;-62
2022/07/16 06:47:54;;;;;;;2.97;2.63;;;;;;;;;;4969153;28;20233;-61
2022/07/16 06:50:24;;;;;;;2.47;2.28;;;;;;;;;;4958925;28;20741;-61
2022/07/16 06:52:50;;;;;;;3.17;2.72;;;;;;;;;;4964052;28;20230;-61
2022/07/16 06:55:17;;;;;;;3.97;2.85;;;;;;;;;;4965600;28;20456;-62
2022/07/16 06:57:43;;;;;;;2.88;2.55;;;;;;;;;;4965633;28;20226;-61
2022/07/16 07:00:10;;;;;;;3.85;2.80;;;;;;;;;;4958218;28;20231;-61
2022/07/16 07:02:36;;;;;;;3.38;3.08;;;;;;;;;;4953774;28;20239;-61
2022/07/16 07:05:02;;;;;;;3.38;3.05;;;;;;;;;;4959127;28;20238;-60
2022/07/16 07:07:30;;;;;;;3.20;2.92;;;;;;;;;;4959890;28;20735;-60
2022/07/16 07:09:59;;;;;;;3.40;3.10;;;;;;;;;;4979428;28;20234;-59
2022/07/16 07:12:25;;;;;;;2.90;2.67;;;;;;;;;;4957768;28;20276;-58
2022/07/16 07:14:51;;;;;;;3.28;2.60;;;;;;;;;;4978759;28;20241;-57
2022/07/16 07:17:18;;;;;;;3.22;3.03;;;;;;;;;;4966686;28;20238;-56
2022/07/16 07:19:44;;;;;;;3.40;3.10;;;;;;;;;;4969451;28;20239;-56
2022/07/16 07:22:10;;;;;;;3.67;3.38;;;;;;;;;;4965338;28;20264;-56
2022/07/16 07:24:38;;;;;;;3.40;3.20;;;;;;;;;;4955272;28;20786;-56
2022/07/16 07:27:06;;;;;;;4.10;3.40;;;;;;;;;;4962313;28;20733;-56
2022/07/16 07:29:32;;;;;;;5.07;3.90;;;;;;;;;;4960042;28;20247;-56
2022/07/16 07:31:58;;;;;;;3.78;3.47;;;;;;;;;;4960603;28;20249;-55
2022/07/16 07:34:25;;;;;;;3.13;2.92;;;;;;;;;;4959899;28;20230;-55
2022/07/16 07:36:51;;;;;;;3.00;2.70;;;;;;;;;;4972121;28;20227;-56
2022/07/16 07:39:18;;;;;;;3.13;2.80;;;;;;;;;;4952735;28;20322;-55
2022/07/16 07:41:45;;;;;;;4.30;3.08;;;;;;;;;;4969319;28;20571;-54
2022/07/16 07:44:12;;;;;;;2.92;2.72;;;;;;;;;;4968857;28;20370;-55
2022/07/16 07:46:38;;;;;;;4.22;3.28;;;;;;;;;;4968990;28;20234;-54
2022/07/16 07:49:05;;;;;;;2.45;2.10;;;;;;;;;;4959694;28;20239;-54
2022/07/16 07:51:31;;;;;;;3.40;2.28;;;;;;;;;;4964557;28;20235;-54
2022/07/16 07:53:58;;;;;;;2.60;2.30;;;;;;;;;;4968333;28;20234;-55
2022/07/16 07:56:24;;;;;;;2.92;2.45;;;;;;;;;;4966706;28;20245;-56
2022/07/16 07:58:52;;;;;;;3.55;2.80;;;;;;;;;;4953835;28;20245;-55
2022/07/16 08:01:19;;;;;;;2.38;2.17;;;;;;;;;;4965307;28;20234;-55
2022/07/16 08:03:45;;;;;;;2.42;2.22;;;;;;;;;;4961969;28;20321;-55
2022/07/16 08:06:12;;;;;;;3.75;2.05;;;;;;;;;;4958898;28;20247;-55
2022/07/16 08:08:38;;;;;;;2.60;2.25;;;;;;;;;;4972399;28;20244;-55
2022/07/16 08:11:05;;;;;;;3.97;1.83;;;;;;;;;;4967017;28;20668;-54
2022/07/16 08:13:31;;;;;;;2.33;2.13;;;;;;;;;;4959762;28;20235;-55
2022/07/16 08:15:59;;;;;;;4.20;2.08;;;;;;;;;;4964953;28;20234;-59
2022/07/16 08:18:25;;;;;;;1.90;1.73;;;;;;;;;;4953312;28;20245;-54
2022/07/16 08:20:54;;;;;;;2.63;1.95;;;;;;;;;;4961826;28;20239;-54
2022/07/16 08:26:00;;;;;;;1.95;1.50;;;;;;;;;;4953723;28;20736;-54
2022/07/16 08:28:27;;;;;;;1.30;1.20;;;;;;;;;;4948667;28;20244;-54
2022/07/16 08:30:53;;;;;;;4.82;1.67;;;;;;;;;;4954625;28;20257;-54
2022/07/16 08:33:21;;;;;;;1.20;1.10;;;;;;;;;;4943633;28;20290;-53
2022/07/16 08:35:48;;;;;;;1.13;1.00;;;;;;;;;;4948161;28;20334;-53
2022/07/16 08:38:14;;;;;;;1.20;1.10;;;;;;;;;;4957446;28;20325;-54
2022/07/16 08:40:42;;;;;;;1.80;1.50;;;;;;;;;;4962850;28;20230;-52
2022/07/16 08:43:09;;;;;;;1.10;1.00;;;;;;;;;;4964281;28;20234;-53
2022/07/16 08:45:36;;;;;;;4.00;1.10;;;;;;;;;;4952298;28;20269;-54
2022/07/16 08:48:03;;;;;;;1.95;1.27;;;;;;;;;;4966670;28;20238;-54
2022/07/16 08:50:31;;;;;;;1.58;1.42;;;;;;;;;;4953381;28;20236;-55
2022/07/16 08:52:58;;;;;;;1.02;0.95;;;;;;;;;;4961044;28;20246;-53
2022/07/16 08:55:25;;;;;;;1.13;0.90;;;;;;;;;;4968947;28;20238;-54
2022/07/16 08:57:52;;;;;;;1.70;1.00;;;;;;;;;;4964428;28;20317;-54
2022/07/16 09:00:19;;;;;;;0.85;0.80;;;;;;;;;;4964372;28;20317;-54
2022/07/16 09:02:46;;;;;;;1.85;0.98;;;;;;;;;;4962364;28;20737;-55
2022/07/16 09:05:13;;;;;;;1.45;1.02;;;;;;;;;;4954291;28;20242;-54
2022/07/16 09:07:40;;;;;;;1.38;1.02;;;;;;;;;;4976519;28;20242;-54
2022/07/16 09:10:08;;;;;;;1.67;0.88;;;;;;;;;;4957781;28;20323;-54
2022/07/16 09:12:35;;;;;;;3.08;1.10;;;;;;;;;;4968153;28;20234;-54
2022/07/16 09:15:21;;;;;;;1.45;1.10;;;;;;;;;;4960938;28;20234;-54
2022/07/16 09:18:06;;;;;;;1.70;0.75;;;;;;;;;;4964244;28;20246;-52
2022/07/16 09:20:32;;;;;;;1.23;0.95;;;;;;;;;;4947274;28;20246;-54
2022/07/16 09:23:02;;;;;;;2.05;0.90;;;;;;;;;;4953689;28;20222;-54
2022/07/16 09:25:28;;;;;;;1.58;0.80;;;;;;;;;;4942344;28;20612;-56
2022/07/16 09:27:57;;;;;;;1.15;0.93;;;;;;;;;;4947108;28;20246;-53
2022/07/16 09:30:24;;;;;;;2.58;0.93;;;;;;;;;;4942885;28;20246;-52
2022/07/16 09:32:51;;;;;;;0.88;0.88;;;;;;;;;;4942517;28;20706;-53
2022/07/16 09:35:18;;;;;;;0.90;0.90;;;;;;;;;;4941210;28;20235;-53
2022/07/16 09:37:45;;;;;;;0.90;0.82;;;;;;;;;;4942124;28;20228;-53
2022/07/16 09:40:13;;;;;;;1.83;0.98;;;;;;;;;;4944298;28;20238;-53
2022/07/16 09:42:40;;;;;;;1.45;0.93;;;;;;;;;;4950240;28;20762;-54
2022/07/16 09:45:06;;;;;;;1.38;0.73;;;;;;;;;;4945499;28;20241;-54
2022/07/16 09:47:33;;;;;;;1.30;0.80;;;;;;;;;;4945131;28;20231;-52
2022/07/16 09:50:00;;;;;;;2.67;0.88;;;;;;;;;;4947586;28;20262;-53
2022/07/16 09:52:28;;;;;;;0.65;0.65;;;;;;;;;;4949510;28;20234;-53
2022/07/16 09:54:56;;;;;;;1.23;0.70;;;;;;;;;;4950271;28;20548;-54
2022/07/16 09:57:25;;;;;;;0.85;0.80;;;;;;;;;;4941187;28;20700;-54
2022/07/16 09:59:52;;;;;;;1.02;0.70;;;;;;;;;;4941675;28;20256;-55
2022/07/16 10:02:18;;;;;;;0.88;0.88;;;;;;;;;;4950948;28;20501;-52
2022/07/16 10:04:45;;;;;;;2.20;0.90;;;;;;;;;;4947780;28;20239;-53
2022/07/16 10:07:11;;;;;;;1.40;0.90;;;;;;;;;;4957379;28;20297;-53
2022/07/16 10:09:37;;;;;;;2.20;0.65;;;;;;;;;;4950376;28;20269;-53
2022/07/16 10:12:06;;;;;;;0.77;0.65;;;;;;;;;;4940996;28;20243;-54
2022/07/16 10:14:35;;;;;;;1.42;0.80;;;;;;;;;;4943990;28;20242;-54
2022/07/16 10:17:11;;;;;;;1.65;0.68;;;;;;;;;;4939960;28;20322;-54
2022/07/16 10:19:37;;;;;;;1.15;0.63;;;;;;;;;;4946994;28;20246;-53
2022/07/16 10:22:27;;;;;;;1.85;1.05;;;;;;;;;;4955505;28;20223;-53
2022/07/16 10:24:55;;;;;;;0.80;0.70;;;;;;;;;;4944486;28;20243;-52
2022/07/16 10:27:25;;;;;;;1.38;0.90;;;;;;;;;;4959965;28;20245;-51
2022/07/16 10:30:07;;;;;;;1.05;0.50;;;;;;;;;;4949815;28;20249;-54
2022/07/16 10:33:06;;;;;;;1.27;0.80;;;;;;;;;;4953889;28;20231;-54
2022/07/16 10:35:33;;;;;;;1.73;0.73;;;;;;;;;;4958542;28;20234;-54
2022/07/16 10:38:09;;;;;;;3.90;1.48;;;;;;;;;;4959928;28;20266;-55
2022/07/16 10:40:37;;;;;;;1.30;1.02;;;;;;;;;;4962546;28;20246;-51
2022/07/16 10:43:13;;;;;;;1.77;1.00;;;;;;;;;;4949007;28;20769;-53
2022/07/16 10:45:51;;;;;;;1.75;0.75;;;;;;;;;;4956209;28;20235;-52
2022/07/16 10:48:18;;;;;;;0.60;0.60;;;;;;;;;;4954232;28;20284;-52
2022/07/16 10:50:59;;;;;;;3.10;1.38;;;;;;;;;;4943120;28;20231;-54
2022/07/16 10:53:26;;;;;;;8.02;1.15;;;;;;;;;;4950034;28;20233;-52
2022/07/16 10:55:52;;;;;;;1.85;0.90;;;;;;;;;;4951755;28;20949;-52
2022/07/16 10:58:26;;;;;;;2.70;1.02;;;;;;;;;;4965427;28;20238;-52
2022/07/16 11:00:54;;;;;;;4.90;1.02;;;;;;;;;;4951156;28;20733;-53
2022/07/16 11:03:22;;;;;;;1.42;0.95;;;;;;;;;;4958847;28;20600;-53
2022/07/16 11:05:49;;;;;;;0.95;0.80;;;;;;;;;;4954511;28;20656;-53
2022/07/16 11:08:15;;;;;;;1.02;0.93;;;;;;;;;;4949621;28;20615;-53
2022/07/16 11:10:42;;;;;;;3.53;0.70;;;;;;;;;;4952497;28;20293;-53
2022/07/16 11:13:15;;;;;;;1.63;0.75;;;;;;;;;;4962024;28;20247;-52
2022/07/16 11:15:41;;;;;;;3.90;0.98;;;;;;;;;;4945781;28;20227;-53
2022/07/16 11:18:15;;;;;;;1.52;1.20;;;;;;;;;;4951578;28;20925;-53
2022/07/16 11:20:42;;;;;;;1.67;0.90;;;;;;;;;;4953762;28;20297;-52
2022/07/16 11:23:08;;;;;;;0.73;0.60;;;;;;;;;;4964379;28;20241;-54
2022/07/16 11:25:35;;;;;;;2.65;0.90;;;;;;;;;;4951405;28;20227;-53
2022/07/16 11:28:02;;;;;;;2.00;0.88;;;;;;;;;;4948140;28;20227;-53
2022/07/16 11:30:28;;;;;;;1.17;0.60;;;;;;;;;;4954812;28;20254;-53
2022/07/16 11:32:54;;;;;;;1.75;0.88;;;;;;;;;;4953936;28;20336;-53
2022/07/16 11:35:22;;;;;;;1.40;0.88;;;;;;;;;;4954714;28;20244;-53
2022/07/16 11:37:49;;;;;;;1.80;0.77;;;;;;;;;;4947256;28;20223;-53
2022/07/16 11:40:16;;;;;;;1.42;0.93;;;;;;;;;;4951841;28;20765;-53
2022/07/16 11:42:42;;;;;;;1.98;0.88;;;;;;;;;;4958302;28;20234;-53
2022/07/16 11:45:10;;;;;;;1.13;1.00;;;;;;;;;;4947611;28;20259;-54
2022/07/16 11:47:36;;;;;;;0.73;0.57;;;;;;;;;;4952855;28;20231;-52
2022/07/16 11:50:03;;;;;;;2.72;0.77;;;;;;;;;;4956124;28;20736;-53
2022/07/16 11:52:30;;;;;;;1.55;0.88;;;;;;;;;;4955749;28;20681;-54
2022/07/16 11:54:57;;;;;;;4.15;0.98;;;;;;;;;;4952473;28;20235;-53
2022/07/16 11:57:24;;;;;;;1.67;0.70;;;;;;;;;;4963418;28;20243;-53
2022/07/16 11:59:52;;;;;;;1.80;0.98;;;;;;;;;;4957624;28;20608;-54
2022/07/16 12:02:19;;;;;;;0.60;0.60;;;;;;;;;;4961911;28;20649;-53
2022/07/16 12:04:46;;;;;;;1.25;0.65;;;;;;;;;;4948410;28;20231;-53
2022/07/16 12:07:14;;;;;;;1.85;0.60;;;;;;;;;;4955097;28;20226;-53
2022/07/16 12:09:43;;;;;;;1.23;1.00;;;;;;;;;;4962755;28;20293;-53
2022/07/16 12:12:12;;;;;;;1.77;1.00;;;;;;;;;;4951059;28;20246;-53
2022/07/16 12:14:43;;;;;;;3.83;0.80;;;;;;;;;;4960348;28;20321;-53
2022/07/16 12:17:17;;;;;;;2.25;1.10;;;;;;;;;;4951157;28;20853;-53
2022/07/16 12:20:01;;;;;;;0.55;0.55;;;;;;;;;;4954627;28;20261;-53
2022/07/16 12:22:45;;;;;;;1.65;0.50;;;;;;;;;;4960281;28;20245;-54
2022/07/16 12:25:23;;;;;;;1.33;0.80;;;;;;;;;;4970081;28;20241;-53
2022/07/16 12:27:50;;;;;;;0.77;0.65;;;;;;;;;;4966383;28;20226;-53
2022/07/16 12:30:17;;;;;;;1.90;0.88;;;;;;;;;;4979284;28;20718;-59
2022/07/16 12:32:47;;;;;;;1.95;0.82;;;;;;;;;;4969773;28;20248;-53
2022/07/16 12:35:28;;;;;;;1.77;0.70;;;;;;;;;;4962101;28;20234;-53
2022/07/16 12:37:55;;;;;;;1.75;0.68;;;;;;;;;;4964491;28;20254;-53
2022/07/16 12:40:22;;;;;;;2.88;0.70;;;;;;;;;;4969167;28;20249;-53
2022/07/16 12:42:51;;;;;;;2.25;1.20;;;;;;;;;;4964104;28;20338;-53
2022/07/16 12:45:17;;;;;;;5.00;1.20;;;;;;;;;;4951787;28;20230;-53
2022/07/16 12:47:44;;;;;;;1.40;1.10;;;;;;;;;;4959019;28;20650;-53
2022/07/16 12:50:10;;;;;;;2.25;1.30;;;;;;;;;;4959618;28;20236;-53
2022/07/16 12:52:37;;;;;;;1.80;0.70;;;;;;;;;;4948640;28;20796;-53
2022/07/16 13:00:34;;;;;;;1.83;0.80;;;;;;;;;;4970881;28;20252;-52
2022/07/16 13:03:00;;;;;;;1.55;0.85;;;;;;;;;;4970245;28;20235;-53
2022/07/16 13:05:27;;;;;;;2.30;0.82;;;;;;;;;;4969905;28;20231;-54
2022/07/16 13:07:53;;;;;;;1.88;0.93;;;;;;;;;;4963255;28;20238;-53
2022/07/16 13:10:20;;;;;;;6.38;1.55;;;;;;;;;;4975629;28;20236;-52
2022/07/16 13:12:46;;;;;;;3.38;1.52;;;;;;;;;;4948524;28;20231;-53
2022/07/16 13:15:16;;;;;;;2.35;1.02;;;;;;;;;;4954258;28;20276;-53
2022/07/16 13:17:43;;;;;;;2.47;1.40;;;;;;;;;;4953722;28;20335;-53
2022/07/16 13:20:11;;;;;;;2.25;1.30;;;;;;;;;;4955052;28;20297;-53
2022/07/16 13:22:37;;;;;;;2.50;0.90;;;;;;;;;;4960727;28;20237;-53
2022/07/16 13:25:04;;;;;;;1.95;0.80;;;;;;;;;;4959118;28;20239;-52
2022/07/16 13:27:30;;;;;;;1.20;0.98;;;;;;;;;;4960335;28;20288;-54
2022/07/16 13:29:57;;;;;;;3.90;0.90;;;;;;;;;;4963423;28;20241;-52
2022/07/16 13:32:25;;;;;;;2.58;1.45;;;;;;;;;;4963866;28;20257;-53
2022/07/16 13:34:51;;;;;;;1.70;1.23;;;;;;;;;;4959068;28;20230;-52
2022/07/16 13:37:18;;;;;;;1.55;1.45;;;;;;;;;;4962667;28;20222;-53
2022/07/16 13:39:45;;;;;;;4.15;2.03;;;;;;;;;;4963494;28;20229;-52
2022/07/16 13:42:11;;;;;;;3.42;1.65;;;;;;;;;;4962645;28;20705;-52
2022/07/16 13:44:37;;;;;;;1.30;0.98;;;;;;;;;;4957698;28;20243;-52
2022/07/16 13:47:04;;;;;;;5.38;1.42;;;;;;;;;;4958785;28;20231;-53
2022/07/16 13:49:32;;;;;;;1.30;1.02;;;;;;;;;;4960116;28;20250;-53
2022/07/16 13:51:58;;;;;;;1.60;1.20;;;;;;;;;;4961812;28;20244;-53
2022/07/16 13:54:25;;;;;;;2.22;0.73;;;;;;;;;;4978422;28;20599;-53
2022/07/16 13:56:51;;;;;;;2.35;1.30;;;;;;;;;;4948966;28;20235;-53
2022/07/16 13:59:17;;;;;;;4.88;1.95;;;;;;;;;;4962523;28;20817;-53
2022/07/16 14:01:43;;;;;;;1.58;1.30;;;;;;;;;;4965870;28;20317;-53
2022/07/16 14:04:10;;;;;;;4.70;1.42;;;;;;;;;;4962414;28;20231;-53
2022/07/16 14:06:38;;;;;;;2.58;1.15;;;;;;;;;;4952493;28;20477;-54
2022/07/16 14:09:04;;;;;;;2.50;1.70;;;;;;;;;;4946745;28;20234;-53
2022/07/16 14:11:31;;;;;;;2.08;1.80;;;;;;;;;;4956822;28;20726;-54
2022/07/16 14:13:57;;;;;;;1.73;1.38;;;;;;;;;;4960406;28;20217;-53
2022/07/16 14:16:23;;;;;;;2.88;1.35;;;;;;;;;;4965087;28;20235;-53
2022/07/16 14:18:50;;;;;;;4.32;1.73;;;;;;;;;;4957012;28;20231;-53
2022/07/16 14:21:18;;;;;;;3.42;2.25;;;;;;;;;;4957911;28;20973;-54
2022/07/16 14:23:45;;;;;;;2.80;1.88;;;;;;;;;;4953576;28;20235;-53
2022/07/16 14:26:12;;;;;;;4.00;1.70;;;;;;;;;;4953897;28;20321;-53
2022/07/16 14:28:38;;;;;;;1.00;0.90;;;;;;;;;;4971456;28;20238;-53
2022/07/16 14:31:04;;;;;;;0.80;0.60;;;;;;;;;;4960727;28;20227;-53
2022/07/16 14:33:31;;;;;;;5.55;1.95;;;;;;;;;;4968474;28;20739;-53
2022/07/16 14:35:57;;;;;;;4.03;1.95;;;;;;;;;;4959963;28;20345;-53
2022/07/16 14:38:24;;;;;;;1.58;0.82;;;;;;;;;;4969778;28;20269;-53
2022/07/16 14:40:52;;;;;;;3.40;0.80;;;;;;;;;;4963488;28;20246;-53
2022/07/16 14:43:18;;;;;;;2.78;1.38;;;;;;;;;;4959197;28;20255;-53
2022/07/16 14:45:44;;;;;;;4.65;1.52;;;;;;;;;;4972120;28;20233;-54
2022/07/16 14:48:11;;;;;;;4.03;1.80;;;;;;;;;;4974364;28;20236;-53
2022/07/16 14:50:37;;;;;;;2.03;1.73;;;;;;;;;;4970281;28;20334;-54
2022/07/16 14:53:03;;;;;;;1.73;1.10;;;;;;;;;;4973368;28;20230;-53
2022/07/16 14:55:30;;;;;;;1.98;1.10;;;;;;;;;;4956433;28;20243;-53
2022/07/16 14:57:57;;;;;;;2.95;1.40;;;;;;;;;;4968095;28;20704;-53
2022/07/16 15:00:24;;;;;;;1.40;0.80;;;;;;;;;;4975274;28;20246;-53